CheckWX is a tool to help pilots better visualize weather data.  It is not intended as a substitute for an official pre-flight weather briefing.

10:51:56 UTC

FMEP TAF
Pierrefonds Airport
St Pierre, Reunion
TAF FMEP 260800Z 2609/2618 VRB03KT 9999 SCT020 OVC130 BECMG 2610/2612 14012KT TEMPO 2610/2618 SHRA SCT020TCU

Jun-26@
09:00 UTC

Jun-26 @ 09:00 UTC

Jun-26@
10:00 UTC

Jun-26 @ 10:00 UTC

TAF FMEP 260800Z 2609/2618 VRB03KT 9999 SCT020 OVC130

Expired

Wind
  • Variable at 3 KTS
Cloud Levels
  • Scattered at 2,000' AGL
  • Overcast at 13,000' AGL

Jun-26@
10:00 UTC

Jun-26 @ 10:00 UTC

Jun-26@
18:00 UTC

Jun-26 @ 18:00 UTC

BECMG 2610/2612 14012KT

Becoming

Becoming Conditions expected by Wed, Jun 26, 2019 @ 12:00 UTC

Wind
  • 140° at 12 KTS
Cloud Levels
  • Scattered at 2,000' AGL
  • Overcast at 13,000' AGL

Jun-26@
10:00 UTC

Jun-26 @ 10:00 UTC

Jun-26@
18:00 UTC

Jun-26 @ 18:00 UTC

TEMPO 2610/2618 SHRA SCT020TCU

Temporary

Temporary Changes expected for less than half the time period

Conditions
Rain
Cloud Levels
  • Scattered at 2,000' AGL